sensor_id;sensor_type;location;lat;lon;timestamp;temperature;humidity
12907;DHT22;6521;50.498;8.474;2023-06-22T00:00:06;21.19;75.97
12907;DHT22;6521;50.498;8.474;2023-06-22T00:02:43;21.14;76.07
12907;DHT22;6521;50.498;8.474;2023-06-22T00:05:14;21.11;76.15
12907;DHT22;6521;50.498;8.474;2023-06-22T00:07:44;21.03;76.30
12907;DHT22;6521;50.498;8.474;2023-06-22T00:10:15;20.93;76.37
12907;DHT22;6521;50.498;8.474;2023-06-22T00:12:46;20.86;76.60
12907;DHT22;6521;50.498;8.474;2023-06-22T00:15:17;20.86;76.66
12907;DHT22;6521;50.498;8.474;2023-06-22T00:17:49;20.90;76.73
12907;DHT22;6521;50.498;8.474;2023-06-22T00:20:20;20.93;76.47
12907;DHT22;6521;50.498;8.474;2023-06-22T00:22:51;20.95;76.35
12907;DHT22;6521;50.498;8.474;2023-06-22T00:25:22;20.97;76.43
12907;DHT22;6521;50.498;8.474;2023-06-22T00:27:53;20.99;76.45
12907;DHT22;6521;50.498;8.474;2023-06-22T00:30:24;20.99;76.35
12907;DHT22;6521;50.498;8.474;2023-06-22T00:32:55;21.00;76.44
12907;DHT22;6521;50.498;8.474;2023-06-22T00:35:26;21.03;76.34
12907;DHT22;6521;50.498;8.474;2023-06-22T00:38:00;21.03;76.37
12907;DHT22;6521;50.498;8.474;2023-06-22T00:40:32;21.06;76.34
12907;DHT22;6521;50.498;8.474;2023-06-22T00:43:05;21.07;76.55
12907;DHT22;6521;50.498;8.474;2023-06-22T00:45:39;21.11;76.38
12907;DHT22;6521;50.498;8.474;2023-06-22T00:48:12;21.08;76.35
12907;DHT22;6521;50.498;8.474;2023-06-22T00:50:43;21.08;76.33
12907;DHT22;6521;50.498;8.474;2023-06-22T00:53:14;21.00;76.68
12907;DHT22;6521;50.498;8.474;2023-06-22T00:55:45;20.93;77.22
12907;DHT22;6521;50.498;8.474;2023-06-22T00:58:18;20.83;77.83
12907;DHT22;6521;50.498;8.474;2023-06-22T01:00:53;20.76;78.38
12907;DHT22;6521;50.498;8.474;2023-06-22T01:03:25;20.62;79.29
12907;DHT22;6521;50.498;8.474;2023-06-22T01:06:02;20.55;79.73
12907;DHT22;6521;50.498;8.474;2023-06-22T01:08:49;20.52;80.01
12907;DHT22;6521;50.498;8.474;2023-06-22T01:11:28;20.45;80.88
12907;DHT22;6521;50.498;8.474;2023-06-22T01:14:15;20.38;81.18
12907;DHT22;6521;50.498;8.474;2023-06-22T01:16:48;20.35;81.53
12907;DHT22;6521;50.498;8.474;2023-06-22T01:21:56;20.22;82.21
12907;DHT22;6521;50.498;8.474;2023-06-22T01:27:50;19.86;82.81
12907;DHT22;6521;50.498;8.474;2023-06-22T01:30:24;19.76;83.09
12907;DHT22;6521;50.498;8.474;2023-06-22T01:32:58;19.70;83.26
12907;DHT22;6521;50.498;8.474;2023-06-22T01:35:30;19.63;83.87
12907;DHT22;6521;50.498;8.474;2023-06-22T01:38:01;19.60;83.94
12907;DHT22;6521;50.498;8.474;2023-06-22T01:40:33;19.60;83.95
12907;DHT22;6521;50.498;8.474;2023-06-22T01:43:06;19.62;83.98
12907;DHT22;6521;50.498;8.474;2023-06-22T01:45:40;19.66;84.44
12907;DHT22;6521;50.498;8.474;2023-06-22T01:48:11;19.76;84.50
12907;DHT22;6521;50.498;8.474;2023-06-22T01:50:46;19.83;84.37
12907;DHT22;6521;50.498;8.474;2023-06-22T01:53:17;19.90;84.57
12907;DHT22;6521;50.498;8.474;2023-06-22T01:55:49;19.90;84.59
12907;DHT22;6521;50.498;8.474;2023-06-22T01:58:26;19.90;84.65
12907;DHT22;6521;50.498;8.474;2023-06-22T02:01:04;19.91;84.66
12907;DHT22;6521;50.498;8.474;2023-06-22T02:03:42;19.90;84.86
12907;DHT22;6521;50.498;8.474;2023-06-22T02:06:23;19.90;84.93
12907;DHT22;6521;50.498;8.474;2023-06-22T02:08:59;19.90;85.00
12907;DHT22;6521;50.498;8.474;2023-06-22T02:11:32;19.91;85.00
12907;DHT22;6521;50.498;8.474;2023-06-22T02:14:05;19.93;84.97
12907;DHT22;6521;50.498;8.474;2023-06-22T02:16:37;19.91;84.97
12907;DHT22;6521;50.498;8.474;2023-06-22T02:19:08;19.93;85.14
12907;DHT22;6521;50.498;8.474;2023-06-22T02:21:39;19.91;85.26
12907;DHT22;6521;50.498;8.474;2023-06-22T02:24:10;19.87;85.39
12907;DHT22;6521;50.498;8.474;2023-06-22T02:26:42;19.90;85.66
12907;DHT22;6521;50.498;8.474;2023-06-22T02:29:15;19.90;85.56
12907;DHT22;6521;50.498;8.474;2023-06-22T02:31:47;19.88;85.55
12907;DHT22;6521;50.498;8.474;2023-06-22T02:34:18;19.90;85.59
12907;DHT22;6521;50.498;8.474;2023-06-22T02:36:50;19.88;85.56
12907;DHT22;6521;50.498;8.474;2023-06-22T02:39:23;19.84;85.37
12907;DHT22;6521;50.498;8.474;2023-06-22T02:41:54;19.84;85.50
12907;DHT22;6521;50.498;8.474;2023-06-22T02:44:27;19.86;85.53
12907;DHT22;6521;50.498;8.474;2023-06-22T02:46:58;19.81;85.57
12907;DHT22;6521;50.498;8.474;2023-06-22T02:49:29;19.84;85.69
12907;DHT22;6521;50.498;8.474;2023-06-22T02:52:00;19.81;85.72
12907;DHT22;6521;50.498;8.474;2023-06-22T02:54:32;19.83;85.74
12907;DHT22;6521;50.498;8.474;2023-06-22T02:57:04;19.83;85.73
12907;DHT22;6521;50.498;8.474;2023-06-22T02:59:36;19.81;85.61
12907;DHT22;6521;50.498;8.474;2023-06-22T03:02:13;19.77;85.41
12907;DHT22;6521;50.498;8.474;2023-06-22T03:04:46;19.69;85.72
12907;DHT22;6521;50.498;8.474;2023-06-22T03:07:20;19.70;85.89
12907;DHT22;6521;50.498;8.474;2023-06-22T03:09:53;19.74;86.11
12907;DHT22;6521;50.498;8.474;2023-06-22T03:12:25;19.76;86.16
12907;DHT22;6521;50.498;8.474;2023-06-22T03:14:58;19.74;86.12
12907;DHT22;6521;50.498;8.474;2023-06-22T03:17:29;19.74;86.17
12907;DHT22;6521;50.498;8.474;2023-06-22T03:20:01;19.73;86.23
12907;DHT22;6521;50.498;8.474;2023-06-22T03:22:38;19.74;86.32
12907;DHT22;6521;50.498;8.474;2023-06-22T03:25:10;19.71;86.26
12907;DHT22;6521;50.498;8.474;2023-06-22T03:27:42;19.71;86.27
12907;DHT22;6521;50.498;8.474;2023-06-22T03:30:15;19.69;86.28
12907;DHT22;6521;50.498;8.474;2023-06-22T03:32:46;19.70;86.37
12907;DHT22;6521;50.498;8.474;2023-06-22T03:35:17;19.67;86.48
12907;DHT22;6521;50.498;8.474;2023-06-22T03:37:48;19.63;86.38
12907;DHT22;6521;50.498;8.474;2023-06-22T03:40:19;19.65;86.37
12907;DHT22;6521;50.498;8.474;2023-06-22T03:42:50;19.60;86.42
12907;DHT22;6521;50.498;8.474;2023-06-22T03:45:21;19.59;86.47
12907;DHT22;6521;50.498;8.474;2023-06-22T03:47:52;19.60;86.44
12907;DHT22;6521;50.498;8.474;2023-06-22T03:50:24;19.60;86.59
12907;DHT22;6521;50.498;8.474;2023-06-22T03:52:55;19.59;86.79
12907;DHT22;6521;50.498;8.474;2023-06-22T03:55:26;19.62;86.72
12907;DHT22;6521;50.498;8.474;2023-06-22T03:57:57;19.62;86.49
12907;DHT22;6521;50.498;8.474;2023-06-22T04:00:29;19.59;86.52
12907;DHT22;6521;50.498;8.474;2023-06-22T04:03:00;19.62;86.57
12907;DHT22;6521;50.498;8.474;2023-06-22T04:05:31;19.59;86.38
12907;DHT22;6521;50.498;8.474;2023-06-22T04:08:02;19.62;86.51
12907;DHT22;6521;50.498;8.474;2023-06-22T04:10:33;19.59;86.53
12907;DHT22;6521;50.498;8.474;2023-06-22T04:13:04;19.56;86.59
12907;DHT22;6521;50.498;8.474;2023-06-22T04:15:35;19.56;86.47
12907;DHT22;6521;50.498;8.474;2023-06-22T04:18:06;19.56;86.50
12907;DHT22;6521;50.498;8.474;2023-06-22T04:20:36;19.62;86.62
12907;DHT22;6521;50.498;8.474;2023-06-22T04:23:07;19.65;86.59
12907;DHT22;6521;50.498;8.474;2023-06-22T04:25:39;19.66;86.59
12907;DHT22;6521;50.498;8.474;2023-06-22T04:28:10;19.70;86.58
12907;DHT22;6521;50.498;8.474;2023-06-22T04:30:43;19.74;86.48
12907;DHT22;6521;50.498;8.474;2023-06-22T04:33:17;19.74;86.44
12907;DHT22;6521;50.498;8.474;2023-06-22T04:35:48;19.79;86.48
12907;DHT22;6521;50.498;8.474;2023-06-22T04:38:19;19.77;86.51
12907;DHT22;6521;50.498;8.474;2023-06-22T04:40:52;19.84;86.78
12907;DHT22;6521;50.498;8.474;2023-06-22T04:43:24;19.88;86.59
12907;DHT22;6521;50.498;8.474;2023-06-22T04:45:55;19.91;86.47
12907;DHT22;6521;50.498;8.474;2023-06-22T04:48:26;19.94;86.49
12907;DHT22;6521;50.498;8.474;2023-06-22T04:51:03;19.97;86.40
12907;DHT22;6521;50.498;8.474;2023-06-22T04:53:35;20.00;86.28
12907;DHT22;6521;50.498;8.474;2023-06-22T04:56:07;20.03;86.35
12907;DHT22;6521;50.498;8.474;2023-06-22T04:58:38;20.01;86.31
12907;DHT22;6521;50.498;8.474;2023-06-22T05:01:10;20.03;86.45
12907;DHT22;6521;50.498;8.474;2023-06-22T05:03:41;20.07;86.51
12907;DHT22;6521;50.498;8.474;2023-06-22T05:06:15;20.11;86.54
12907;DHT22;6521;50.498;8.474;2023-06-22T05:08:46;20.18;86.56
12907;DHT22;6521;50.498;8.474;2023-06-22T05:11:17;20.18;86.54
12907;DHT22;6521;50.498;8.474;2023-06-22T05:13:48;20.24;86.33
12907;DHT22;6521;50.498;8.474;2023-06-22T05:16:20;20.22;85.85
12907;DHT22;6521;50.498;8.474;2023-06-22T05:18:57;20.21;85.72
12907;DHT22;6521;50.498;8.474;2023-06-22T05:21:29;20.29;85.94
12907;DHT22;6521;50.498;8.474;2023-06-22T05:24:00;20.38;86.03
12907;DHT22;6521;50.498;8.474;2023-06-22T05:26:34;20.45;86.02
12907;DHT22;6521;50.498;8.474;2023-06-22T05:29:05;20.53;86.07
12907;DHT22;6521;50.498;8.474;2023-06-22T05:31:36;20.58;86.04
12907;DHT22;6521;50.498;8.474;2023-06-22T05:34:07;20.66;86.01
12907;DHT22;6521;50.498;8.474;2023-06-22T05:36:38;20.66;85.09
12907;DHT22;6521;50.498;8.474;2023-06-22T05:39:13;20.71;85.33
12907;DHT22;6521;50.498;8.474;2023-06-22T05:41:45;20.75;85.11
12907;DHT22;6521;50.498;8.474;2023-06-22T05:44:16;20.82;85.23
12907;DHT22;6521;50.498;8.474;2023-06-22T05:46:47;20.83;84.88
12907;DHT22;6521;50.498;8.474;2023-06-22T05:49:19;20.85;84.57
12907;DHT22;6521;50.498;8.474;2023-06-22T05:51:50;20.90;84.81
12907;DHT22;6521;50.498;8.474;2023-06-22T05:54:21;20.96;84.77
12907;DHT22;6521;50.498;8.474;2023-06-22T05:56:52;21.00;84.96
12907;DHT22;6521;50.498;8.474;2023-06-22T05:59:23;21.07;84.87
12907;DHT22;6521;50.498;8.474;2023-06-22T06:01:55;21.07;84.72
12907;DHT22;6521;50.498;8.474;2023-06-22T06:04:26;21.07;84.47
12907;DHT22;6521;50.498;8.474;2023-06-22T06:06:57;21.10;84.63
12907;DHT22;6521;50.498;8.474;2023-06-22T06:09:28;21.11;84.33
12907;DHT22;6521;50.498;8.474;2023-06-22T06:11:59;21.16;84.63
12907;DHT22;6521;50.498;8.474;2023-06-22T06:14:33;21.17;84.57
12907;DHT22;6521;50.498;8.474;2023-06-22T06:17:04;21.22;84.22
12907;DHT22;6521;50.498;8.474;2023-06-22T06:19:36;21.22;84.48
12907;DHT22;6521;50.498;8.474;2023-06-22T06:22:07;21.20;84.47
12907;DHT22;6521;50.498;8.474;2023-06-22T06:24:38;21.23;84.58
12907;DHT22;6521;50.498;8.474;2023-06-22T06:27:09;21.26;84.47
12907;DHT22;6521;50.498;8.474;2023-06-22T06:29:41;21.26;84.08
12907;DHT22;6521;50.498;8.474;2023-06-22T06:32:12;21.28;84.19
12907;DHT22;6521;50.498;8.474;2023-06-22T06:34:43;21.35;84.24
12907;DHT22;6521;50.498;8.474;2023-06-22T06:37:14;21.38;84.14
12907;DHT22;6521;50.498;8.474;2023-06-22T06:39:46;21.40;83.89
12907;DHT22;6521;50.498;8.474;2023-06-22T06:42:17;21.44;83.58
12907;DHT22;6521;50.498;8.474;2023-06-22T06:44:50;21.41;83.61
12907;DHT22;6521;50.498;8.474;2023-06-22T06:47:21;21.45;83.59
12907;DHT22;6521;50.498;8.474;2023-06-22T06:49:52;21.50;83.60
12907;DHT22;6521;50.498;8.474;2023-06-22T06:52:23;21.58;83.57
12907;DHT22;6521;50.498;8.474;2023-06-22T06:54:55;21.61;83.56
12907;DHT22;6521;50.498;8.474;2023-06-22T06:57:26;21.65;83.11
12907;DHT22;6521;50.498;8.474;2023-06-22T07:00:01;21.74;82.75
12907;DHT22;6521;50.498;8.474;2023-06-22T07:02:32;21.78;82.49
12907;DHT22;6521;50.498;8.474;2023-06-22T07:05:04;21.84;82.16
12907;DHT22;6521;50.498;8.474;2023-06-22T07:07:35;21.92;82.22
12907;DHT22;6521;50.498;8.474;2023-06-22T07:10:06;21.98;82.17
12907;DHT22;6521;50.498;8.474;2023-06-22T07:12:37;22.06;82.27
12907;DHT22;6521;50.498;8.474;2023-06-22T07:15:09;22.12;82.04
12907;DHT22;6521;50.498;8.474;2023-06-22T07:17:41;22.24;82.09
12907;DHT22;6521;50.498;8.474;2023-06-22T07:20:12;22.32;81.53
12907;DHT22;6521;50.498;8.474;2023-06-22T07:22:44;22.39;80.91
12907;DHT22;6521;50.498;8.474;2023-06-22T07:25:18;22.47;81.19
12907;DHT22;6521;50.498;8.474;2023-06-22T07:28:06;22.56;80.60
12907;DHT22;6521;50.498;8.474;2023-06-22T07:30:37;22.70;81.03
12907;DHT22;6521;50.498;8.474;2023-06-22T07:33:08;22.87;80.51
12907;DHT22;6521;50.498;8.474;2023-06-22T07:35:39;23.01;80.12
12907;DHT22;6521;50.498;8.474;2023-06-22T07:38:10;23.14;79.73
12907;DHT22;6521;50.498;8.474;2023-06-22T07:40:42;23.28;79.57
12907;DHT22;6521;50.498;8.474;2023-06-22T07:43:13;23.43;78.79
12907;DHT22;6521;50.498;8.474;2023-06-22T07:45:49;23.59;78.53
12907;DHT22;6521;50.498;8.474;2023-06-22T07:48:22;23.70;77.94
12907;DHT22;6521;50.498;8.474;2023-06-22T07:50:53;23.73;77.39
12907;DHT22;6521;50.498;8.474;2023-06-22T07:53:24;23.73;77.11
12907;DHT22;6521;50.498;8.474;2023-06-22T07:55:55;23.70;77.71
12907;DHT22;6521;50.498;8.474;2023-06-22T07:58:26;23.79;78.03
12907;DHT22;6521;50.498;8.474;2023-06-22T08:00:57;23.79;76.79
12907;DHT22;6521;50.498;8.474;2023-06-22T08:03:29;23.80;77.18
12907;DHT22;6521;50.498;8.474;2023-06-22T08:06:00;23.86;77.34
12907;DHT22;6521;50.498;8.474;2023-06-22T08:08:31;23.90;77.13
12907;DHT22;6521;50.498;8.474;2023-06-22T08:11:03;23.96;76.62
12907;DHT22;6521;50.498;8.474;2023-06-22T08:13:34;24.01;75.98
12907;DHT22;6521;50.498;8.474;2023-06-22T08:16:05;24.13;75.72
12907;DHT22;6521;50.498;8.474;2023-06-22T08:18:37;24.22;75.89
12907;DHT22;6521;50.498;8.474;2023-06-22T08:21:08;24.37;74.65
12907;DHT22;6521;50.498;8.474;2023-06-22T08:23:39;24.52;74.38
12907;DHT22;6521;50.498;8.474;2023-06-22T08:26:10;24.59;73.88
12907;DHT22;6521;50.498;8.474;2023-06-22T08:28:41;24.71;73.34
12907;DHT22;6521;50.498;8.474;2023-06-22T08:31:12;24.83;73.61
12907;DHT22;6521;50.498;8.474;2023-06-22T08:33:45;24.96;73.93
12907;DHT22;6521;50.498;8.474;2023-06-22T08:36:17;25.10;72.86
12907;DHT22;6521;50.498;8.474;2023-06-22T08:38:48;25.22;72.70
12907;DHT22;6521;50.498;8.474;2023-06-22T08:41:22;25.31;71.10
12907;DHT22;6521;50.498;8.474;2023-06-22T08:43:53;25.44;71.29
12907;DHT22;6521;50.498;8.474;2023-06-22T08:46:24;25.55;70.45
12907;DHT22;6521;50.498;8.474;2023-06-22T08:49:04;25.77;69.94
12907;DHT22;6521;50.498;8.474;2023-06-22T08:51:35;26.02;69.53
12907;DHT22;6521;50.498;8.474;2023-06-22T08:54:06;26.19;67.70
12907;DHT22;6521;50.498;8.474;2023-06-22T08:56:37;26.25;66.90
12907;DHT22;6521;50.498;8.474;2023-06-22T08:59:07;26.47;67.26
12907;DHT22;6521;50.498;8.474;2023-06-22T09:01:38;26.63;66.61
12907;DHT22;6521;50.498;8.474;2023-06-22T09:04:09;26.79;65.52
12907;DHT22;6521;50.498;8.474;2023-06-22T09:06:40;26.94;65.95
12907;DHT22;6521;50.498;8.474;2023-06-22T09:09:16;27.11;65.66
12907;DHT22;6521;50.498;8.474;2023-06-22T09:11:47;27.10;64.96
12907;DHT22;6521;50.498;8.474;2023-06-22T09:14:18;27.18;65.06
12907;DHT22;6521;50.498;8.474;2023-06-22T09:16:49;27.35;65.07
12907;DHT22;6521;50.498;8.474;2023-06-22T09:19:20;27.52;64.67
12907;DHT22;6521;50.498;8.474;2023-06-22T09:21:51;27.67;63.75
12907;DHT22;6521;50.498;8.474;2023-06-22T09:24:22;27.85;62.48
12907;DHT22;6521;50.498;8.474;2023-06-22T09:26:53;28.00;62.34
12907;DHT22;6521;50.498;8.474;2023-06-22T09:29:25;28.27;62.49
12907;DHT22;6521;50.498;8.474;2023-06-22T09:31:56;28.49;61.04
12907;DHT22;6521;50.498;8.474;2023-06-22T09:34:27;28.83;60.92
12907;DHT22;6521;50.498;8.474;2023-06-22T09:36:58;28.99;59.40
12907;DHT22;6521;50.498;8.474;2023-06-22T09:39:35;28.98;59.02
12907;DHT22;6521;50.498;8.474;2023-06-22T09:42:07;28.98;57.68
12907;DHT22;6521;50.498;8.474;2023-06-22T09:44:38;29.03;58.50
12907;DHT22;6521;50.498;8.474;2023-06-22T09:47:10;28.99;57.91
12907;DHT22;6521;50.498;8.474;2023-06-22T09:49:41;28.91;57.66
12907;DHT22;6521;50.498;8.474;2023-06-22T09:52:14;28.99;59.95
12907;DHT22;6521;50.498;8.474;2023-06-22T09:54:45;29.34;57.85
12907;DHT22;6521;50.498;8.474;2023-06-22T09:57:16;29.80;56.86
12907;DHT22;6521;50.498;8.474;2023-06-22T09:59:48;30.31;54.54
12907;DHT22;6521;50.498;8.474;2023-06-22T10:02:19;30.31;53.33
12907;DHT22;6521;50.498;8.474;2023-06-22T10:04:50;30.09;53.42
12907;DHT22;6521;50.498;8.474;2023-06-22T10:07:21;29.68;53.30
12907;DHT22;6521;50.498;8.474;2023-06-22T10:09:52;29.16;54.88
12907;DHT22;6521;50.498;8.474;2023-06-22T10:12:23;29.06;55.41
12907;DHT22;6521;50.498;8.474;2023-06-22T10:14:54;28.89;55.86
12907;DHT22;6521;50.498;8.474;2023-06-22T10:17:25;28.80;56.48
12907;DHT22;6521;50.498;8.474;2023-06-22T10:19:56;28.76;56.46
12907;DHT22;6521;50.498;8.474;2023-06-22T10:22:27;28.89;56.99
12907;DHT22;6521;50.498;8.474;2023-06-22T10:24:58;29.53;56.08
12907;DHT22;6521;50.498;8.474;2023-06-22T10:27:29;30.11;53.73
12907;DHT22;6521;50.498;8.474;2023-06-22T10:30:02;30.63;52.41
12907;DHT22;6521;50.498;8.474;2023-06-22T10:32:34;30.84;51.11
12907;DHT22;6521;50.498;8.474;2023-06-22T10:35:05;31.28;51.46
12907;DHT22;6521;50.498;8.474;2023-06-22T10:37:44;31.29;50.41
12907;DHT22;6521;50.498;8.474;2023-06-22T10:40:16;31.63;51.40
12907;DHT22;6521;50.498;8.474;2023-06-22T10:42:48;32.27;51.26
12907;DHT22;6521;50.498;8.474;2023-06-22T10:45:21;32.71;48.17
12907;DHT22;6521;50.498;8.474;2023-06-22T10:47:52;32.60;46.84
12907;DHT22;6521;50.498;8.474;2023-06-22T10:50:23;32.24;46.78
12907;DHT22;6521;50.498;8.474;2023-06-22T10:52:57;32.41;47.19
12907;DHT22;6521;50.498;8.474;2023-06-22T10:55:28;32.54;47.81
12907;DHT22;6521;50.498;8.474;2023-06-22T10:57:59;32.70;46.58
12907;DHT22;6521;50.498;8.474;2023-06-22T11:00:30;32.71;46.96
12907;DHT22;6521;50.498;8.474;2023-06-22T11:03:01;32.38;45.85
12907;DHT22;6521;50.498;8.474;2023-06-22T11:05:32;32.23;47.57
12907;DHT22;6521;50.498;8.474;2023-06-22T11:08:03;32.54;45.80
12907;DHT22;6521;50.498;8.474;2023-06-22T11:10:34;32.78;44.05
12907;DHT22;6521;50.498;8.474;2023-06-22T11:13:05;32.89;43.20
12907;DHT22;6521;50.498;8.474;2023-06-22T11:15:40;32.92;43.51
12907;DHT22;6521;50.498;8.474;2023-06-22T11:18:11;32.81;44.32
12907;DHT22;6521;50.498;8.474;2023-06-22T11:20:42;32.75;42.32
12907;DHT22;6521;50.498;8.474;2023-06-22T11:23:14;32.74;44.47
12907;DHT22;6521;50.498;8.474;2023-06-22T11:25:45;32.92;43.60
12907;DHT22;6521;50.498;8.474;2023-06-22T11:28:17;32.99;43.58
12907;DHT22;6521;50.498;8.474;2023-06-22T11:30:49;33.43;44.13
12907;DHT22;6521;50.498;8.474;2023-06-22T11:33:20;33.77;43.05
12907;DHT22;6521;50.498;8.474;2023-06-22T11:35:51;33.94;42.15
12907;DHT22;6521;50.498;8.474;2023-06-22T11:38:23;33.97;41.75
12907;DHT22;6521;50.498;8.474;2023-06-22T11:40:54;33.73;41.50
12907;DHT22;6521;50.498;8.474;2023-06-22T11:43:25;33.53;42.67
12907;DHT22;6521;50.498;8.474;2023-06-22T11:45:56;33.50;43.31
12907;DHT22;6521;50.498;8.474;2023-06-22T11:48:29;33.77;43.18
12907;DHT22;6521;50.498;8.474;2023-06-22T11:51:00;34.18;41.73
12907;DHT22;6521;50.498;8.474;2023-06-22T11:53:34;34.28;42.12
12907;DHT22;6521;50.498;8.474;2023-06-22T11:56:05;34.37;41.14
12907;DHT22;6521;50.498;8.474;2023-06-22T11:58:36;34.28;39.86
12907;DHT22;6521;50.498;8.474;2023-06-22T12:01:07;34.49;41.32
12907;DHT22;6521;50.498;8.474;2023-06-22T12:03:38;34.60;39.67
12907;DHT22;6521;50.498;8.474;2023-06-22T12:06:09;34.55;39.95
12907;DHT22;6521;50.498;8.474;2023-06-22T12:08:40;34.65;40.67
12907;DHT22;6521;50.498;8.474;2023-06-22T12:11:11;34.62;39.81
12907;DHT22;6521;50.498;8.474;2023-06-22T12:13:42;34.79;39.84
12907;DHT22;6521;50.498;8.474;2023-06-22T12:16:13;34.95;39.02
12907;DHT22;6521;50.498;8.474;2023-06-22T12:18:44;35.06;38.75
12907;DHT22;6521;50.498;8.474;2023-06-22T12:21:15;35.20;38.34
12907;DHT22;6521;50.498;8.474;2023-06-22T12:23:46;35.17;39.15
12907;DHT22;6521;50.498;8.474;2023-06-22T12:26:17;35.03;37.94
12907;DHT22;6521;50.498;8.474;2023-06-22T12:28:48;35.00;38.46
12907;DHT22;6521;50.498;8.474;2023-06-22T12:31:20;35.08;38.60
12907;DHT22;6521;50.498;8.474;2023-06-22T12:33:50;35.29;38.03
12907;DHT22;6521;50.498;8.474;2023-06-22T12:36:21;34.90;36.61
12907;DHT22;6521;50.498;8.474;2023-06-22T12:38:52;34.52;37.98
12907;DHT22;6521;50.498;8.474;2023-06-22T12:41:23;34.31;37.95
12907;DHT22;6521;50.498;8.474;2023-06-22T12:43:54;34.34;38.06
12907;DHT22;6521;50.498;8.474;2023-06-22T12:46:25;34.70;37.45
12907;DHT22;6521;50.498;8.474;2023-06-22T12:48:56;35.14;37.78
12907;DHT22;6521;50.498;8.474;2023-06-22T12:51:28;35.58;37.30
12907;DHT22;6521;50.498;8.474;2023-06-22T12:53:59;35.67;36.07
12907;DHT22;6521;50.498;8.474;2023-06-22T12:56:30;35.33;36.27
12907;DHT22;6521;50.498;8.474;2023-06-22T12:59:01;34.89;36.99
12907;DHT22;6521;50.498;8.474;2023-06-22T13:01:32;34.85;38.79
12907;DHT22;6521;50.498;8.474;2023-06-22T13:04:03;34.83;37.49
12907;DHT22;6521;50.498;8.474;2023-06-22T13:06:35;34.87;38.45
12907;DHT22;6521;50.498;8.474;2023-06-22T13:09:06;35.34;36.91
12907;DHT22;6521;50.498;8.474;2023-06-22T13:11:36;35.36;37.06
12907;DHT22;6521;50.498;8.474;2023-06-22T13:14:07;35.50;36.99
12907;DHT22;6521;50.498;8.474;2023-06-22T13:16:38;35.36;37.22
12907;DHT22;6521;50.498;8.474;2023-06-22T13:19:09;35.03;37.57
12907;DHT22;6521;50.498;8.474;2023-06-22T13:21:40;35.02;37.78
12907;DHT22;6521;50.498;8.474;2023-06-22T13:24:11;34.97;38.68
12907;DHT22;6521;50.498;8.474;2023-06-22T13:26:42;34.66;37.52
12907;DHT22;6521;50.498;8.474;2023-06-22T13:29:13;34.48;38.79
12907;DHT22;6521;50.498;8.474;2023-06-22T13:31:44;34.49;38.71
12907;DHT22;6521;50.498;8.474;2023-06-22T13:34:15;34.58;38.04
12907;DHT22;6521;50.498;8.474;2023-06-22T13:36:46;34.41;37.93
12907;DHT22;6521;50.498;8.474;2023-06-22T13:39:18;34.38;39.73
12907;DHT22;6521;50.498;8.474;2023-06-22T13:41:49;34.14;39.68
12907;DHT22;6521;50.498;8.474;2023-06-22T13:44:20;34.22;39.55
12907;DHT22;6521;50.498;8.474;2023-06-22T13:46:52;34.62;39.59
12907;DHT22;6521;50.498;8.474;2023-06-22T13:49:23;35.02;39.25
12907;DHT22;6521;50.498;8.474;2023-06-22T13:51:54;35.11;37.92
12907;DHT22;6521;50.498;8.474;2023-06-22T13:54:26;35.33;39.17
12907;DHT22;6521;50.498;8.474;2023-06-22T13:56:57;35.24;35.75
12907;DHT22;6521;50.498;8.474;2023-06-22T13:59:28;35.23;37.03
12907;DHT22;6521;50.498;8.474;2023-06-22T14:02:00;35.06;36.43
12907;DHT22;6521;50.498;8.474;2023-06-22T14:04:31;34.48;37.14
12907;DHT22;6521;50.498;8.474;2023-06-22T14:07:01;33.97;37.34
12907;DHT22;6521;50.498;8.474;2023-06-22T14:09:33;33.71;40.02
12907;DHT22;6521;50.498;8.474;2023-06-22T14:12:06;33.22;40.78
12907;DHT22;6521;50.498;8.474;2023-06-22T14:14:37;32.70;42.03
12907;DHT22;6521;50.498;8.474;2023-06-22T14:17:08;32.26;42.47
12907;DHT22;6521;50.498;8.474;2023-06-22T14:19:39;31.76;44.00
12907;DHT22;6521;50.498;8.474;2023-06-22T14:22:10;31.45;45.09
12907;DHT22;6521;50.498;8.474;2023-06-22T14:24:41;31.22;45.67
12907;DHT22;6521;50.498;8.474;2023-06-22T14:27:12;31.06;46.14
12907;DHT22;6521;50.498;8.474;2023-06-22T14:29:43;30.80;45.30
12907;DHT22;6521;50.498;8.474;2023-06-22T14:32:14;30.66;45.44
12907;DHT22;6521;50.498;8.474;2023-06-22T14:34:45;30.57;46.14
12907;DHT22;6521;50.498;8.474;2023-06-22T14:37:16;30.37;46.02
12907;DHT22;6521;50.498;8.474;2023-06-22T14:39:47;30.31;46.44
12907;DHT22;6521;50.498;8.474;2023-06-22T14:42:21;30.11;47.07
12907;DHT22;6521;50.498;8.474;2023-06-22T14:44:52;30.02;47.67
12907;DHT22;6521;50.498;8.474;2023-06-22T14:47:23;29.89;48.56
12907;DHT22;6521;50.498;8.474;2023-06-22T14:49:54;29.74;48.00
12907;DHT22;6521;50.498;8.474;2023-06-22T14:52:26;29.57;47.41
12907;DHT22;6521;50.498;8.474;2023-06-22T14:54:58;29.49;48.02
12907;DHT22;6521;50.498;8.474;2023-06-22T14:57:29;29.47;48.13
12907;DHT22;6521;50.498;8.474;2023-06-22T15:00:00;29.36;48.48
12907;DHT22;6521;50.498;8.474;2023-06-22T15:02:33;29.29;48.45
12907;DHT22;6521;50.498;8.474;2023-06-22T15:05:04;29.13;49.10
12907;DHT22;6521;50.498;8.474;2023-06-22T15:07:35;28.99;49.75
12907;DHT22;6521;50.498;8.474;2023-06-22T15:10:06;28.96;50.03
12907;DHT22;6521;50.498;8.474;2023-06-22T15:12:38;28.91;50.60
12907;DHT22;6521;50.498;8.474;2023-06-22T15:15:12;28.80;51.43
12907;DHT22;6521;50.498;8.474;2023-06-22T15:17:43;28.75;51.67
12907;DHT22;6521;50.498;8.474;2023-06-22T15:20:14;28.71;51.90
12907;DHT22;6521;50.498;8.474;2023-06-22T15:22:45;28.66;52.17
12907;DHT22;6521;50.498;8.474;2023-06-22T15:25:16;28.62;52.65
12907;DHT22;6521;50.498;8.474;2023-06-22T15:27:47;28.52;53.05
12907;DHT22;6521;50.498;8.474;2023-06-22T15:30:19;28.43;53.57
12907;DHT22;6521;50.498;8.474;2023-06-22T15:32:50;28.34;54.13
12907;DHT22;6521;50.498;8.474;2023-06-22T15:35:21;28.27;54.43
12907;DHT22;6521;50.498;8.474;2023-06-22T15:37:52;28.22;55.04
12907;DHT22;6521;50.498;8.474;2023-06-22T15:40:23;28.14;54.98
12907;DHT22;6521;50.498;8.474;2023-06-22T15:42:54;28.20;54.66
12907;DHT22;6521;50.498;8.474;2023-06-22T15:45:25;28.18;54.90
12907;DHT22;6521;50.498;8.474;2023-06-22T15:47:57;28.21;54.97
12907;DHT22;6521;50.498;8.474;2023-06-22T15:50:28;28.21;55.64
12907;DHT22;6521;50.498;8.474;2023-06-22T15:52:59;28.11;55.65
12907;DHT22;6521;50.498;8.474;2023-06-22T15:55:30;28.01;56.50
12907;DHT22;6521;50.498;8.474;2023-06-22T15:58:02;27.82;56.99
12907;DHT22;6521;50.498;8.474;2023-06-22T16:00:33;27.43;56.93
12907;DHT22;6521;50.498;8.474;2023-06-22T16:03:04;27.02;58.31
12907;DHT22;6521;50.498;8.474;2023-06-22T16:05:35;26.49;60.31
12907;DHT22;6521;50.498;8.474;2023-06-22T16:08:10;25.81;65.79
12907;DHT22;6521;50.498;8.474;2023-06-22T16:10:42;25.20;69.26
12907;DHT22;6521;50.498;8.474;2023-06-22T16:13:12;24.66;72.18
12907;DHT22;6521;50.498;8.474;2023-06-22T16:15:45;24.04;72.97
12907;DHT22;6521;50.498;8.474;2023-06-22T16:18:16;23.49;75.72